LFQQLFRG

Guest
Details From LFQQ - Lille Lesquin
To LFRG - Deauville Saint Gatien
Flight Number -
Tags generated
Created
Modified
Stats Distance 135 nm / 249 km
Max Altitude 16,200 ft / 4,938 m
Waypoints 3
Social Downloads 2
Likes 0
Share VATSIM

Download

Looking for another format? Having issues loading an existing format? Contact us
Advertisement - Login to hide

Notes

Basic altitude profile: - Ascent Rate: 2500ft/min - Ascent Speed: 250kts - Cruise Altitude: 35000ft - Cruise Speed: 420kts - Descent Rate: 1500ft/min - Descent Speed: 250kts Options: - Use NATs: yes - Use PACOTS: yes - Use low airways: yes - Use high airways: yes

Route

LFQQ ABB LFRG

ID Type Via Altitude Latitude Longitude Leg Dist Tot Dist Heading (true) Name
O LFQQ APT - 0 ft / 0 m 50.56633˚ 3.09538˚ - 0 nm - Lille Lesquin
ABB VOR - 16,200 ft / 4,938 m 50.13514˚ 1.85469˚ 54 nm 54 nm 242° / 241° ABBEVILLE VOR-DME
O LFRG APT - 0 ft / 0 m 49.36530˚ 0.15432˚ 80 nm 134 nm 236° / 234° Deauville Saint Gatien

Altitude Profile

Advertisement - Login to hide

LFQQ

Details ICAO LFQQ (LIL)
Name Lille Lesquin
Region France
Timezone Europe/Paris (UTC+1.0)
Stats Elevation 156 ft / 48 m (AMSL)
Location 50.566335° 3.095384°
Runways 2
Magnetic Variation 0.703° E

METAR

LFQQ 111700Z AUTO 35019KT 2800 SN BR OVC005 01/00 Q0978 TEMPO 06020G35KT BECMG 9999 NSW BKN012 OVC030

Decode

TAF

TAF LFQQ 111100Z 1112/1218 06020G35KT 9999 RASN BKN007 OVC012 BECMG 1113/1115 1500 SN OVC004 BECMG 1118/1120 36013KT 9999 NSW BKN012 OVC030 BECMG 1120/1122 27006KT NSC TEMPO 1122/1206 3000 SHGS BKN015CB

Decode

Departure Runways

ID Width Length Bearing (true) Bearing (mag) Surface Threshold Offset Overrun Length
02 98 ft / 30 m 5,168 ft / 1,575 m 14.83° 14.13° Asphalt 0 ft / 0 m 0 ft / 0 m
08 146 ft / 45 m 9,250 ft / 2,819 m 77.36° 76.66° Asphalt 0 ft / 0 m 0 ft / 0 m
20 98 ft / 30 m 5,168 ft / 1,575 m 194.83° 194.13° Asphalt 0 ft / 0 m 0 ft / 0 m
26 146 ft / 45 m 9,250 ft / 2,819 m 257.39° 256.69° Asphalt 918 ft / 280 m 0 ft / 0 m

LFRG

Details ICAO LFRG (DOL)
Name Deauville Saint Gatien
Region France
Timezone Europe/Paris (UTC+1.0)
Stats Elevation 479 ft / 146 m (AMSL)
Location 49.365296° 0.154324°
Runways 1
Magnetic Variation 0.143° W

METAR

LFRG 111700Z AUTO 01016G29KT 320V040 9999 BKN021 BKN028 OVC034 05/01 Q0986 NOSIG

Decode

TAF

Not found

Destination Runways

ID Width Length Bearing (true) Bearing (mag) Surface Threshold Offset Overrun Length
12 148 ft / 45 m 8,344 ft / 2,543 m 117.22° 117.36° Asphalt 1,476 ft / 450 m 0 ft / 0 m
30 148 ft / 45 m 8,344 ft / 2,543 m 297.25° 297.39° Asphalt 1,378 ft / 420 m 0 ft / 0 m

Approach Navaids

Runway Type Ident Frequency Range Bearing (true) Bearing (mag) Slope Elevation
30 Localiser DV 111.55 MHz 18 nm / 33 km 297.22° 297.36° - 479 ft / 146 m (AMSL)
30 Glidescope DV 111.55 MHz 10 nm / 19 km 297.23° 297.38° 3.00° 479 ft / 146 m (AMSL)
30 DME DV 111.55 MHz 18 nm / 33 km - - - 466 ft / 142 m (AMSL)

Popular Alternatives